createdAt,value
2018-07-08T00:00:44.272Z,16.00
2018-07-08T00:03:13.246Z,16.00
2018-07-08T00:05:42.220Z,15.80
2018-07-08T00:08:11.194Z,15.80
2018-07-08T00:10:42.049Z,16.00
2018-07-08T00:13:11.230Z,16.00
2018-07-08T00:15:40.191Z,15.90
2018-07-08T00:18:09.121Z,16.10
2018-07-08T00:20:38.081Z,16.00
2018-07-08T00:23:07.005Z,15.90
2018-07-08T00:25:35.945Z,15.60
2018-07-08T00:28:05.281Z,15.40
2018-07-08T00:30:34.366Z,15.40
2018-07-08T00:33:03.566Z,15.30
2018-07-08T00:35:32.979Z,15.30
2018-07-08T00:38:02.096Z,15.40
2018-07-08T00:45:28.197Z,15.20
2018-07-08T00:47:57.368Z,15.30
2018-07-08T00:50:26.354Z,15.40
2018-07-08T00:52:55.322Z,15.40
2018-07-08T00:55:24.373Z,15.40
2018-07-08T00:57:53.316Z,15.40
2018-07-08T01:02:59.092Z,15.30
2018-07-08T01:07:56.850Z,15.10
2018-07-08T01:10:25.919Z,15.20
2018-07-08T01:12:54.910Z,15.30
2018-07-08T01:15:24.010Z,15.40
2018-07-08T01:17:52.981Z,15.40
2018-07-08T01:20:22.335Z,15.40
2018-07-08T01:25:31.257Z,15.30
2018-07-08T01:28:00.220Z,15.40
2018-07-08T01:30:29.341Z,15.40
2018-07-08T01:32:58.348Z,15.20
2018-07-08T01:35:27.335Z,15.10
2018-07-08T01:37:56.300Z,15.10
2018-07-08T01:40:25.249Z,14.80
2018-07-08T01:42:54.152Z,14.80
2018-07-08T01:45:23.070Z,14.90
2018-07-08T01:47:52.047Z,15.00
2018-07-08T01:50:21.037Z,14.80
2018-07-08T01:52:49.972Z,14.70
2018-07-08T01:55:19.046Z,14.60
2018-07-08T01:57:48.075Z,14.60
2018-07-08T02:00:17.042Z,14.60
2018-07-08T02:02:45.997Z,14.50
2018-07-08T02:05:14.974Z,14.40
2018-07-08T02:07:43.949Z,14.40
2018-07-08T02:12:41.360Z,14.60
2018-07-08T02:15:10.396Z,14.60
2018-07-08T02:17:39.375Z,14.60
2018-07-08T02:20:08.562Z,14.60
2018-07-08T02:22:37.660Z,14.50
2018-07-08T02:25:06.641Z,14.50
2018-07-08T02:27:35.680Z,14.40
2018-07-08T02:32:33.263Z,14.50
2018-07-08T02:37:30.676Z,14.20
2018-07-08T02:39:59.720Z,14.20
2018-07-08T02:44:57.226Z,14.20
2018-07-08T02:47:29.095Z,14.10
2018-07-08T02:49:58.193Z,14.00
2018-07-08T02:52:27.173Z,14.00
2018-07-08T02:54:56.111Z,13.90
2018-07-08T02:57:25.085Z,13.80
2018-07-08T02:59:54.041Z,13.70
2018-07-08T03:02:23.048Z,13.80
2018-07-08T03:04:52.033Z,13.90
2018-07-08T03:07:21.014Z,13.90
2018-07-08T03:09:49.978Z,13.80
2018-07-08T03:12:18.917Z,13.80
2018-07-08T03:14:47.824Z,13.70
2018-07-08T03:17:16.746Z,13.90
2018-07-08T03:19:45.649Z,13.80
2018-07-08T03:24:43.060Z,13.50
2018-07-08T03:27:12.101Z,13.50
2018-07-08T03:29:41.014Z,13.40
2018-07-08T03:34:38.392Z,13.40
2018-07-08T03:37:07.315Z,13.30
2018-07-08T03:39:36.258Z,13.30
2018-07-08T03:42:05.217Z,13.40
2018-07-08T03:44:34.135Z,13.30
2018-07-08T03:49:31.565Z,13.20
2018-07-08T03:52:00.511Z,13.10
2018-07-08T03:56:59.217Z,13.00
2018-07-08T03:59:28.183Z,13.00
2018-07-08T04:01:57.128Z,13.00
2018-07-08T04:04:26.080Z,12.90
2018-07-08T04:09:23.494Z,12.90
2018-07-08T04:11:52.405Z,12.90
2018-07-08T04:14:21.324Z,12.80
2018-07-08T04:16:50.319Z,12.80
2018-07-08T04:21:47.723Z,12.90
2018-07-08T04:24:16.724Z,12.80
2018-07-08T04:26:45.643Z,12.90
2018-07-08T04:29:14.583Z,12.90
2018-07-08T04:34:11.968Z,12.80
2018-07-08T04:36:40.934Z,12.80
2018-07-08T04:41:38.749Z,12.90
2018-07-08T04:44:07.720Z,12.90
2018-07-08T04:46:36.656Z,13.00
2018-07-08T04:49:05.616Z,13.00
2018-07-08T04:51:34.552Z,13.00
2018-07-08T04:54:03.441Z,13.10
2018-07-08T04:56:32.363Z,13.10
2018-07-08T05:01:29.830Z,13.20
2018-07-08T05:06:27.341Z,13.20
2018-07-08T05:11:24.725Z,13.20
2018-07-08T05:13:53.687Z,13.20
2018-07-08T05:16:22.591Z,13.30
2018-07-08T05:18:51.501Z,13.40
2018-07-08T05:21:20.497Z,13.50
2018-07-08T05:23:49.473Z,13.60
2018-07-08T05:26:19.820Z,13.70
2018-07-08T05:28:48.775Z,13.80
2018-07-08T05:31:17.673Z,13.80
2018-07-08T05:33:46.600Z,13.90
2018-07-08T05:36:15.521Z,14.00
2018-07-08T05:38:44.500Z,14.10
2018-07-08T05:41:13.443Z,14.10
2018-07-08T05:43:42.349Z,14.10
2018-07-08T05:46:11.271Z,14.20
2018-07-08T05:48:40.206Z,14.20
2018-07-08T05:51:09.178Z,14.20
2018-07-08T05:53:38.744Z,14.20
2018-07-08T05:56:07.703Z,14.30
2018-07-08T05:58:36.662Z,14.30
2018-07-08T06:03:34.155Z,14.30
2018-07-08T06:06:04.126Z,14.30
2018-07-08T06:08:33.098Z,14.20
2018-07-08T06:11:02.093Z,14.20
2018-07-08T06:13:31.061Z,14.30
2018-07-08T06:16:00.145Z,14.30
2018-07-08T06:18:29.086Z,14.30
2018-07-08T06:20:58.097Z,14.40
2018-07-08T06:28:24.066Z,14.60
2018-07-08T06:30:53.117Z,14.80
2018-07-08T06:33:22.151Z,14.90
2018-07-08T06:35:51.119Z,15.00
2018-07-08T06:38:20.109Z,15.10
2018-07-08T06:40:49.100Z,15.20
2018-07-08T06:43:18.033Z,15.30
2018-07-08T06:45:46.974Z,15.40
2018-07-08T06:48:15.972Z,15.50
2018-07-08T06:50:44.892Z,15.60
2018-07-08T06:55:42.311Z,15.80
2018-07-08T06:58:11.281Z,15.90
2018-07-08T07:00:40.273Z,16.00
2018-07-08T07:03:09.220Z,16.10
2018-07-08T07:05:38.243Z,16.20
2018-07-08T07:08:07.235Z,16.30
2018-07-08T07:10:36.160Z,16.40
2018-07-08T07:13:05.119Z,16.40
2018-07-08T07:15:34.133Z,16.50
2018-07-08T07:18:03.129Z,16.60
2018-07-08T07:20:32.125Z,16.60
2018-07-08T07:23:07.558Z,16.70
2018-07-08T07:25:36.467Z,16.70
2018-07-08T07:28:05.491Z,16.90
2018-07-08T07:30:34.506Z,17.00
2018-07-08T07:33:03.470Z,17.20
2018-07-08T07:35:32.531Z,17.30
2018-07-08T07:38:01.718Z,17.40
2018-07-08T07:40:30.723Z,17.50
2018-07-08T07:42:59.771Z,17.60
2018-07-08T07:47:57.259Z,17.80
2018-07-08T07:50:26.240Z,17.90
2018-07-08T07:52:55.208Z,18.00
2018-07-08T07:55:24.161Z,18.10
2018-07-08T07:57:53.284Z,18.20
2018-07-08T08:00:22.313Z,18.30
2018-07-08T08:02:51.234Z,18.30
2018-07-08T08:05:20.184Z,18.30
2018-07-08T08:12:46.261Z,18.30
2018-07-08T08:15:15.286Z,18.30
2018-07-08T08:17:44.218Z,18.30
2018-07-08T08:22:41.733Z,18.50
2018-07-08T08:25:10.752Z,18.50
2018-07-08T08:27:39.681Z,18.50
2018-07-08T08:32:37.181Z,18.60
2018-07-08T08:35:10.141Z,18.60
2018-07-08T08:40:13.761Z,18.70
2018-07-08T08:42:42.745Z,18.80
2018-07-08T08:45:12.945Z,19.10
2018-07-08T08:47:42.050Z,19.10
2018-07-08T08:50:12.002Z,19.30
2018-07-08T08:52:40.934Z,19.40
2018-07-08T08:55:10.917Z,19.40
2018-07-08T08:57:39.913Z,19.50
2018-07-08T09:00:11.286Z,19.60
2018-07-08T09:02:40.406Z,19.60
2018-07-08T09:05:09.472Z,19.60
2018-07-08T09:07:38.517Z,19.70
2018-07-08T09:12:36.265Z,19.80
2018-07-08T09:15:05.297Z,19.90
2018-07-08T09:17:34.254Z,20.00
2018-07-08T09:20:03.213Z,20.00
2018-07-08T09:22:32.143Z,20.00
2018-07-08T09:25:01.049Z,20.10
2018-07-08T09:29:58.721Z,20.40
2018-07-08T09:32:27.686Z,20.50
2018-07-08T09:34:56.616Z,20.60
2018-07-08T09:39:54.022Z,20.90
2018-07-08T09:42:22.922Z,20.90
2018-07-08T09:44:51.936Z,21.00
2018-07-08T09:47:20.870Z,21.00
2018-07-08T09:49:49.839Z,21.10
2018-07-08T09:52:18.760Z,21.10
2018-07-08T09:54:47.658Z,21.30
2018-07-08T09:57:16.701Z,21.50
2018-07-08T09:59:45.722Z,21.50
2018-07-08T10:02:14.720Z,21.70
2018-07-08T10:04:43.733Z,21.60
2018-07-08T10:07:12.691Z,21.70
2018-07-08T10:09:41.698Z,21.70
2018-07-08T10:12:10.578Z,21.80
2018-07-08T10:17:08.156Z,22.00
2018-07-08T10:24:34.226Z,22.10
2018-07-08T10:28:17.830Z,22.20
2018-07-08T10:30:46.941Z,22.20
2018-07-08T10:35:53.542Z,22.20
2018-07-08T10:38:22.575Z,22.20
2018-07-08T10:40:51.580Z,22.20
2018-07-08T10:43:20.527Z,22.20
2018-07-08T10:45:49.501Z,22.20
2018-07-08T10:50:47.068Z,22.40
2018-07-08T15:18:21.364Z,23.60
2018-07-08T15:20:50.359Z,23.50
